createdAt,value
2022-10-05T00:01:21.606Z,16.00
2022-10-05T00:03:50.092Z,16.00
2022-10-05T00:06:19.931Z,16.00
2022-10-05T00:08:48.070Z,16.00
2022-10-05T00:11:17.123Z,16.00
2022-10-05T00:13:45.275Z,16.00
2022-10-05T00:16:17.227Z,16.00
2022-10-05T00:18:48.503Z,16.00
2022-10-05T00:21:24.199Z,16.00
2022-10-05T00:23:53.007Z,16.00
2022-10-05T00:26:24.045Z,16.00
2022-10-05T00:28:53.276Z,16.00
2022-10-05T00:31:24.771Z,16.00
2022-10-05T00:33:54.885Z,16.00
2022-10-05T00:36:26.089Z,15.90
2022-10-05T00:38:55.685Z,15.90
2022-10-05T00:41:31.042Z,16.10
2022-10-05T00:44:28.963Z,15.90
2022-10-05T00:47:03.880Z,15.90
2022-10-05T00:49:56.334Z,15.90
2022-10-05T00:52:34.045Z,15.90
2022-10-05T00:55:12.313Z,15.90
2022-10-05T00:57:51.989Z,15.90
2022-10-05T01:00:24.529Z,15.90
2022-10-05T01:02:58.994Z,15.90
2022-10-05T01:05:47.146Z,15.80
2022-10-05T01:08:27.001Z,15.80
2022-10-05T01:11:04.876Z,15.80
2022-10-05T01:13:43.889Z,15.80
2022-10-05T01:16:17.665Z,15.80
2022-10-05T01:18:52.155Z,15.80
2022-10-05T01:21:23.096Z,15.80
2022-10-05T01:24:27.607Z,15.80
2022-10-05T01:27:16.764Z,15.80
2022-10-05T01:29:54.649Z,15.80
2022-10-05T01:32:32.958Z,15.80
2022-10-05T01:35:14.786Z,16.10
2022-10-05T01:37:52.959Z,15.80
2022-10-05T01:40:31.198Z,16.10
2022-10-05T01:43:05.769Z,15.80
2022-10-05T01:45:46.851Z,15.80
2022-10-05T01:48:23.449Z,15.80
2022-10-05T01:51:01.615Z,15.80
2022-10-05T01:53:43.501Z,15.80
2022-10-05T01:56:20.390Z,15.80
2022-10-05T01:58:56.460Z,15.70
2022-10-05T02:01:32.403Z,15.80
2022-10-05T02:04:07.101Z,15.70
2022-10-05T02:06:41.513Z,15.70
2022-10-05T02:09:16.182Z,15.70
2022-10-05T02:11:50.386Z,15.70
2022-10-05T02:14:23.745Z,15.70
2022-10-05T02:16:55.587Z,15.70
2022-10-05T02:19:30.579Z,15.70
2022-10-05T02:22:04.571Z,15.70
2022-10-05T02:24:40.414Z,15.70
2022-10-05T02:27:11.843Z,15.70
2022-10-05T02:29:46.222Z,15.60
2022-10-05T02:32:19.219Z,15.70
2022-10-05T02:34:47.363Z,15.70
2022-10-05T02:37:35.793Z,15.60
2022-10-05T02:40:19.871Z,15.60
2022-10-05T02:42:57.414Z,15.60
2022-10-05T02:45:37.582Z,15.70
2022-10-05T02:48:13.408Z,15.60
2022-10-05T02:50:50.571Z,15.60
2022-10-05T02:53:29.366Z,15.60
2022-10-05T02:56:11.047Z,15.60
2022-10-05T02:58:46.763Z,15.60
2022-10-05T03:01:25.438Z,15.60
2022-10-05T03:04:06.003Z,15.60
2022-10-05T03:06:40.624Z,15.60
2022-10-05T03:09:11.268Z,15.60
2022-10-05T03:11:48.103Z,15.60
2022-10-05T03:14:24.486Z,15.60
2022-10-05T03:17:06.795Z,15.60
2022-10-05T03:19:55.982Z,15.60
2022-10-05T03:22:32.186Z,15.60
2022-10-05T03:25:28.562Z,15.60
2022-10-05T03:28:06.657Z,15.60
2022-10-05T03:30:40.194Z,15.60
2022-10-05T03:33:17.854Z,15.70
2022-10-05T03:35:54.343Z,15.70
2022-10-05T03:38:31.746Z,15.60
2022-10-05T03:41:09.905Z,15.60
2022-10-05T03:43:54.786Z,15.60
2022-10-05T03:46:31.784Z,15.60
2022-10-05T03:49:08.505Z,15.60
2022-10-05T03:51:43.718Z,15.60
2022-10-05T03:54:23.721Z,15.60
2022-10-05T03:56:56.753Z,15.60
2022-10-05T03:59:32.717Z,15.70
2022-10-05T04:02:09.610Z,15.60
2022-10-05T04:04:42.585Z,15.60
2022-10-05T04:07:29.327Z,15.70
2022-10-05T04:10:02.264Z,15.60
2022-10-05T04:12:38.620Z,15.60
2022-10-05T04:15:19.652Z,15.60
2022-10-05T04:17:53.249Z,15.60
2022-10-05T04:20:27.380Z,15.60
2022-10-05T04:23:03.675Z,15.60
2022-10-05T04:25:38.566Z,15.60
2022-10-05T04:28:15.184Z,15.60
2022-10-05T04:30:49.059Z,15.60
2022-10-05T04:33:19.687Z,15.60
2022-10-05T04:36:04.406Z,15.60
2022-10-05T04:38:48.398Z,15.60
2022-10-05T04:41:40.928Z,15.60
2022-10-05T04:44:35.559Z,15.60
2022-10-05T04:47:22.931Z,15.60
2022-10-05T04:50:09.643Z,15.60
2022-10-05T04:52:50.300Z,15.60
2022-10-05T04:55:33.217Z,15.60
2022-10-05T04:58:12.765Z,15.60
2022-10-05T05:00:51.869Z,15.60
2022-10-05T05:03:44.186Z,15.60
2022-10-05T05:06:25.972Z,15.60
2022-10-05T05:09:52.445Z,15.60
2022-10-05T05:12:30.995Z,15.60
2022-10-05T05:15:27.668Z,15.60
2022-10-05T05:18:34.939Z,15.60
2022-10-05T05:21:14.678Z,15.60
2022-10-05T05:23:50.340Z,15.60
2022-10-05T05:26:28.282Z,15.70
2022-10-05T05:29:09.876Z,15.60
2022-10-05T05:31:46.029Z,15.70
2022-10-05T05:34:33.619Z,15.60
2022-10-05T05:37:12.385Z,15.60
2022-10-05T05:39:48.340Z,15.70
2022-10-05T05:42:35.355Z,15.70
2022-10-05T05:45:18.347Z,15.60
2022-10-05T05:47:53.749Z,15.70
2022-10-05T05:50:42.123Z,15.70
2022-10-05T05:53:18.828Z,15.70
2022-10-05T05:55:52.823Z,15.70
2022-10-05T05:58:26.285Z,15.70
2022-10-05T06:01:02.638Z,15.70
2022-10-05T06:03:39.379Z,15.70
2022-10-05T06:06:12.420Z,15.70
2022-10-05T06:08:44.701Z,15.70
2022-10-05T06:11:42.365Z,15.70
2022-10-05T06:14:14.791Z,15.70
2022-10-05T06:16:51.283Z,15.70
2022-10-05T06:19:22.843Z,15.70
2022-10-05T06:21:57.468Z,15.70
2022-10-05T06:24:30.955Z,15.70
2022-10-05T06:27:27.596Z,15.70
2022-10-05T06:30:06.779Z,15.70
2022-10-05T06:32:53.983Z,15.70
2022-10-05T06:35:36.754Z,15.70
2022-10-05T06:38:18.199Z,15.70
2022-10-05T06:41:00.744Z,15.70
2022-10-05T06:43:54.210Z,15.80
2022-10-05T06:47:05.729Z,15.70
2022-10-05T06:50:04.955Z,15.70
2022-10-05T06:53:03.796Z,15.70
2022-10-05T06:55:39.221Z,15.80
2022-10-05T06:58:22.180Z,15.80
2022-10-05T07:00:55.322Z,15.80
2022-10-05T07:03:33.177Z,15.80
2022-10-05T07:06:12.357Z,15.80
2022-10-05T07:09:02.575Z,15.80
2022-10-05T07:11:54.628Z,15.80
2022-10-05T07:14:38.002Z,15.80
2022-10-05T07:17:26.424Z,15.80
2022-10-05T07:20:04.439Z,15.80
2022-10-05T07:22:51.517Z,15.80
2022-10-05T07:25:24.035Z,15.80
2022-10-05T07:27:57.315Z,15.80
2022-10-05T07:30:26.102Z,15.80
2022-10-05T07:33:01.619Z,15.80
2022-10-05T07:35:58.148Z,15.80
2022-10-05T07:38:33.035Z,15.80
2022-10-05T07:41:07.371Z,15.80
2022-10-05T07:44:01.561Z,15.80
2022-10-05T07:46:45.026Z,15.80
2022-10-05T07:49:24.345Z,15.80
2022-10-05T07:51:57.117Z,15.80
2022-10-05T07:54:32.511Z,15.80
2022-10-05T07:57:12.603Z,15.80
2022-10-05T07:59:46.400Z,15.90
2022-10-05T08:02:23.722Z,15.90
2022-10-05T08:04:58.368Z,15.90
2022-10-05T08:07:29.252Z,15.90
2022-10-05T08:10:04.933Z,15.90
2022-10-05T08:12:37.049Z,15.90
2022-10-05T08:15:12.943Z,15.90
2022-10-05T08:17:49.527Z,15.90
2022-10-05T08:20:31.062Z,15.90
2022-10-05T08:23:03.218Z,16.00
2022-10-05T08:25:42.139Z,15.90
2022-10-05T08:28:18.677Z,16.00
2022-10-05T08:30:55.441Z,15.90
2022-10-05T08:33:24.893Z,16.00
2022-10-05T08:36:03.828Z,16.00
2022-10-05T08:38:34.810Z,16.00
2022-10-05T08:41:36.109Z,16.00
2022-10-05T08:44:46.690Z,16.00
2022-10-05T08:47:23.024Z,16.00
2022-10-05T08:50:09.160Z,16.00
2022-10-05T08:52:55.379Z,16.00
2022-10-05T08:55:42.240Z,16.00
2022-10-05T08:58:55.170Z,16.10
2022-10-05T09:01:35.193Z,16.00
2022-10-05T09:04:18.015Z,16.10
2022-10-05T09:07:08.880Z,16.10
2022-10-05T09:10:01.709Z,16.10
2022-10-05T09:12:47.572Z,16.20
2022-10-05T09:15:45.041Z,16.20
2022-10-05T09:18:37.100Z,16.20
2022-10-05T09:21:13.951Z,16.20
2022-10-05T09:23:43.908Z,16.20
2022-10-05T09:26:45.692Z,16.30
2022-10-05T09:29:52.869Z,16.30
2022-10-05T09:33:04.965Z,16.30
2022-10-05T09:36:03.528Z,16.30
2022-10-05T09:38:47.565Z,16.30
2022-10-05T09:41:50.737Z,16.30
2022-10-05T09:45:00.374Z,16.30
2022-10-05T09:48:01.918Z,16.40
2022-10-05T09:53:59.079Z,16.40
2022-10-05T09:57:00.050Z,16.40
2022-10-05T10:00:05.058Z,16.50
2022-10-05T10:03:45.648Z,16.50
2022-10-05T10:06:35.084Z,16.60
2022-10-05T10:09:27.236Z,16.50
2022-10-05T10:12:14.914Z,16.60
2022-10-05T10:15:29.929Z,16.60
2022-10-05T10:18:27.806Z,16.60
2022-10-05T10:21:33.191Z,16.60
2022-10-05T10:24:14.837Z,16.70
2022-10-05T10:27:02.674Z,16.70
2022-10-05T10:29:46.648Z,16.70
2022-10-05T10:32:39.397Z,16.70
2022-10-05T10:35:23.101Z,16.70
2022-10-05T10:38:22.185Z,16.80
2022-10-05T10:41:06.688Z,16.80
2022-10-05T10:44:11.097Z,16.80
2022-10-05T10:46:50.079Z,16.80
2022-10-05T10:49:34.752Z,16.80
2022-10-05T10:52:13.737Z,16.90
2022-10-05T10:55:06.413Z,16.90
2022-10-05T10:57:45.821Z,16.90
2022-10-05T11:00:30.267Z,16.90
2022-10-05T11:03:14.347Z,17.00
2022-10-05T11:06:02.396Z,17.00
2022-10-05T11:09:02.486Z,17.00
2022-10-05T11:12:06.533Z,17.00
2022-10-05T11:14:52.375Z,17.10
2022-10-05T11:17:31.756Z,17.10
2022-10-05T11:20:19.481Z,17.10
2022-10-05T11:22:58.545Z,17.20
2022-10-05T11:25:47.231Z,17.20
2022-10-05T11:28:55.122Z,17.20
2022-10-05T11:31:49.099Z,17.30
2022-10-05T11:34:57.013Z,17.30
2022-10-05T11:37:53.635Z,17.40
2022-10-05T11:41:02.164Z,17.40
2022-10-05T11:43:45.302Z,17.40
2022-10-05T11:46:20.298Z,17.50
2022-10-05T11:49:01.638Z,17.50
2022-10-05T11:51:43.642Z,17.50
2022-10-05T11:54:26.495Z,17.60
2022-10-05T11:57:01.699Z,17.60
2022-10-05T11:59:36.155Z,17.60
2022-10-05T12:02:22.671Z,17.70
2022-10-05T12:05:00.934Z,17.70
2022-10-05T12:07:37.344Z,17.70
2022-10-05T12:10:20.301Z,17.70
2022-10-05T12:13:03.508Z,17.80
2022-10-05T12:15:42.486Z,17.80
2022-10-05T12:18:16.927Z,17.90
2022-10-05T12:20:51.329Z,17.90
2022-10-05T12:23:26.594Z,18.00
2022-10-05T12:26:02.501Z,18.00
2022-10-05T12:28:36.290Z,18.00
2022-10-05T12:31:17.872Z,18.10
2022-10-05T12:33:53.758Z,18.10
2022-10-05T12:36:52.572Z,18.20
2022-10-05T12:39:27.779Z,18.20
2022-10-05T12:42:04.730Z,18.30
2022-10-05T12:44:50.497Z,18.30
2022-10-05T12:47:25.471Z,18.40
2022-10-05T12:50:20.139Z,18.50
2022-10-05T12:53:05.347Z,18.60
2022-10-05T12:55:42.581Z,18.60
2022-10-05T12:58:23.936Z,18.60
2022-10-05T13:01:01.419Z,18.70
2022-10-05T13:03:35.467Z,18.70
2022-10-05T13:06:13.579Z,18.80
2022-10-05T13:08:51.191Z,18.80
2022-10-05T13:11:27.377Z,18.80
2022-10-05T13:14:07.463Z,18.90
2022-10-05T13:16:41.307Z,18.90
2022-10-05T13:19:32.558Z,19.00
2022-10-05T13:22:17.806Z,19.00
2022-10-05T13:24:59.267Z,19.00
2022-10-05T13:27:31.893Z,19.10
2022-10-05T13:30:06.707Z,19.10
2022-10-05T13:32:37.628Z,19.20
2022-10-05T13:35:23.496Z,19.20
2022-10-05T13:38:02.300Z,19.20
2022-10-05T13:40:36.643Z,19.30
2022-10-05T13:43:13.511Z,19.30
2022-10-05T13:45:52.703Z,19.40
2022-10-05T13:48:42.264Z,19.40
2022-10-05T13:51:17.924Z,19.50
2022-10-05T13:53:50.427Z,19.50
2022-10-05T13:56:23.504Z,19.60
2022-10-05T13:58:56.601Z,19.60
2022-10-05T14:01:36.038Z,19.70
2022-10-05T14:04:06.919Z,19.70
2022-10-05T14:06:39.851Z,19.70
2022-10-05T14:09:14.993Z,19.80
2022-10-05T14:11:51.548Z,19.80
2022-10-05T14:14:28.154Z,19.80
2022-10-05T14:16:58.997Z,19.80
2022-10-05T14:19:32.099Z,19.80
2022-10-05T14:22:03.264Z,19.80
2022-10-05T14:24:48.921Z,19.80
2022-10-05T14:27:27.561Z,19.90
2022-10-05T14:30:02.213Z,19.90
2022-10-05T14:32:34.429Z,19.90
2022-10-05T14:35:15.402Z,19.90
2022-10-05T14:37:52.172Z,19.90
2022-10-05T14:40:28.862Z,19.90
2022-10-05T14:43:01.067Z,19.90
2022-10-05T14:45:30.857Z,20.00
2022-10-05T14:48:10.992Z,20.00
2022-10-05T14:50:53.204Z,20.00
2022-10-05T14:53:24.580Z,20.10
2022-10-05T14:56:33.160Z,20.10
2022-10-05T14:59:14.981Z,20.10
2022-10-05T15:01:52.952Z,20.10
2022-10-05T15:04:33.794Z,20.10
2022-10-05T15:07:13.817Z,20.10
2022-10-05T15:10:03.658Z,20.00
2022-10-05T15:12:35.696Z,20.00
2022-10-05T15:15:18.193Z,20.00
2022-10-05T15:17:52.602Z,20.00
2022-10-05T15:20:26.673Z,20.00
2022-10-05T15:23:05.224Z,20.00
2022-10-05T15:25:40.317Z,19.90
2022-10-05T15:28:16.625Z,20.00
2022-10-05T15:30:53.786Z,19.90
2022-10-05T15:33:28.768Z,19.90
2022-10-05T15:36:06.359Z,19.90
2022-10-05T15:38:50.063Z,19.90
2022-10-05T15:41:21.513Z,19.90
2022-10-05T15:44:01.118Z,19.90
2022-10-05T15:46:36.560Z,19.90
2022-10-05T15:49:19.143Z,19.90
2022-10-05T15:51:59.511Z,19.90
2022-10-05T15:54:56.132Z,19.80
2022-10-05T15:57:34.651Z,19.80
2022-10-05T16:00:10.254Z,19.80
2022-10-05T16:02:44.511Z,19.70
2022-10-05T16:05:42.280Z,19.70
2022-10-05T16:08:38.331Z,19.70
2022-10-05T16:11:19.070Z,19.60
2022-10-05T16:13:59.705Z,19.60
2022-10-05T16:16:38.685Z,19.60
2022-10-05T16:19:15.984Z,19.60
2022-10-05T16:21:54.105Z,19.60
2022-10-05T16:24:41.875Z,19.50
2022-10-05T16:27:18.578Z,19.50
2022-10-05T16:29:56.010Z,19.50
2022-10-05T16:32:31.263Z,19.50
2022-10-05T16:35:15.886Z,19.40
2022-10-05T16:37:50.832Z,19.40
2022-10-05T16:40:28.513Z,19.40
2022-10-05T16:43:07.065Z,19.30
2022-10-05T16:45:51.739Z,19.30
2022-10-05T16:48:26.250Z,19.30
2022-10-05T16:51:19.363Z,19.20
2022-10-05T16:53:59.140Z,19.20
2022-10-05T16:56:34.408Z,19.20
2022-10-05T16:59:32.570Z,19.10
2022-10-05T17:02:08.020Z,19.10
2022-10-05T17:04:46.018Z,19.00
2022-10-05T17:07:40.896Z,19.00
2022-10-05T17:10:28.285Z,19.00
2022-10-05T17:13:06.128Z,19.00
2022-10-05T17:15:42.346Z,19.00
2022-10-05T17:18:31.841Z,18.90
2022-10-05T17:21:07.784Z,18.90
2022-10-05T17:23:55.245Z,18.90
2022-10-05T17:26:54.709Z,18.90
2022-10-05T17:29:47.479Z,18.90
2022-10-05T17:32:36.193Z,18.80
2022-10-05T17:35:19.241Z,18.80
2022-10-05T17:38:16.012Z,18.80
2022-10-05T17:41:20.270Z,18.80
2022-10-05T17:44:36.238Z,18.80
2022-10-05T17:47:08.993Z,18.80
2022-10-05T17:50:08.967Z,18.80
2022-10-05T17:52:58.794Z,18.80
2022-10-05T17:55:47.491Z,18.80
2022-10-05T17:59:01.647Z,18.80
2022-10-05T18:01:36.840Z,18.80
2022-10-05T18:04:30.508Z,18.80
2022-10-05T18:07:18.112Z,18.80
2022-10-05T18:10:20.206Z,18.80
2022-10-05T18:12:50.453Z,18.80
2022-10-05T18:15:45.133Z,18.80
2022-10-05T18:18:54.636Z,18.80
2022-10-05T18:21:58.640Z,18.80
2022-10-05T18:24:53.154Z,18.80
2022-10-05T18:27:50.653Z,18.80
2022-10-05T18:30:22.572Z,18.80
2022-10-05T18:33:20.426Z,18.80
2022-10-05T18:36:04.502Z,18.80
2022-10-05T18:38:43.535Z,18.80
2022-10-05T18:41:19.831Z,18.80
2022-10-05T18:43:59.172Z,18.80
2022-10-05T18:46:38.804Z,18.80
2022-10-05T18:49:20.025Z,18.80
2022-10-05T18:51:57.493Z,18.80
2022-10-05T18:54:54.145Z,18.80
2022-10-05T18:58:03.167Z,18.80
2022-10-05T19:00:45.670Z,18.80
2022-10-05T19:03:23.743Z,18.80
2022-10-05T19:06:00.569Z,18.80
2022-10-05T19:08:39.145Z,18.80
2022-10-05T19:11:19.006Z,18.80
2022-10-05T19:13:57.521Z,18.80
2022-10-05T19:16:49.818Z,18.80
2022-10-05T19:19:53.936Z,18.80
2022-10-05T19:22:38.392Z,18.80
2022-10-05T19:25:26.347Z,18.80
2022-10-05T19:28:04.744Z,18.80
2022-10-05T19:30:55.713Z,18.80
2022-10-05T19:33:45.395Z,18.80
2022-10-05T19:36:31.811Z,18.80
2022-10-05T19:39:09.931Z,18.80
2022-10-05T19:42:04.261Z,18.80
2022-10-05T19:44:48.987Z,18.80
2022-10-05T19:47:28.281Z,18.80
2022-10-05T19:50:03.966Z,18.80
2022-10-05T19:52:47.637Z,18.80
2022-10-05T19:55:26.671Z,18.80
2022-10-05T19:57:59.883Z,18.80
2022-10-05T20:00:33.260Z,18.80
2022-10-05T20:03:13.047Z,18.80
2022-10-05T20:05:42.067Z,18.80
2022-10-05T20:08:18.672Z,18.80
2022-10-05T20:10:47.854Z,18.80
2022-10-05T20:13:22.676Z,18.80
2022-10-05T20:16:41.082Z,18.80
2022-10-05T20:19:50.650Z,18.80
2022-10-05T20:22:31.514Z,18.80
2022-10-05T20:25:02.137Z,18.80
2022-10-05T20:27:47.421Z,18.80
2022-10-05T20:30:21.660Z,18.80
2022-10-05T20:32:50.485Z,18.80
2022-10-05T20:35:21.822Z,18.80
2022-10-05T20:37:50.959Z,18.80
2022-10-05T20:40:20.312Z,18.80
2022-10-05T20:42:49.034Z,18.80
2022-10-05T20:45:18.680Z,18.80
2022-10-05T20:47:47.319Z,18.80
2022-10-05T20:50:16.071Z,18.80
2022-10-05T20:52:45.389Z,18.80
2022-10-05T20:55:13.776Z,18.80
2022-10-05T20:57:42.609Z,18.90
2022-10-05T21:00:12.854Z,18.80
2022-10-05T21:02:42.504Z,18.90
2022-10-05T21:05:11.133Z,18.90
2022-10-05T21:07:40.898Z,18.90
2022-10-05T21:10:09.937Z,18.90
2022-10-05T21:12:38.128Z,18.90
2022-10-05T21:15:07.452Z,18.90
2022-10-05T21:17:36.325Z,18.90
2022-10-05T21:20:07.358Z,18.90
2022-10-05T21:22:36.359Z,18.90
2022-10-05T21:25:04.739Z,18.90
2022-10-05T21:27:33.106Z,18.90
2022-10-05T21:30:01.398Z,18.80
2022-10-05T21:32:29.666Z,18.80
2022-10-05T21:34:58.264Z,18.80
2022-10-05T21:37:27.830Z,18.80
2022-10-05T21:39:55.963Z,18.80
2022-10-05T21:42:24.087Z,18.80
2022-10-05T21:44:52.251Z,18.80
2022-10-05T21:47:20.477Z,18.70
2022-10-05T21:49:48.684Z,18.70
2022-10-05T21:52:16.853Z,18.70
2022-10-05T21:54:46.873Z,18.70
2022-10-05T21:57:15.406Z,18.60
2022-10-05T21:59:44.443Z,18.60
2022-10-05T22:02:12.582Z,18.60
2022-10-05T22:04:41.032Z,18.60
2022-10-05T22:07:19.041Z,18.60
2022-10-05T22:09:49.764Z,18.60
2022-10-05T22:12:19.726Z,18.50
2022-10-05T22:14:47.887Z,18.50
2022-10-05T22:17:19.898Z,18.50
2022-10-05T22:19:48.105Z,18.50
2022-10-05T22:22:16.394Z,18.50
2022-10-05T22:24:44.718Z,18.40
2022-10-05T22:27:15.199Z,18.40
2022-10-05T22:29:44.216Z,18.40
2022-10-05T22:32:12.490Z,18.40
2022-10-05T22:34:41.256Z,18.40
2022-10-05T22:37:12.963Z,18.40
2022-10-05T22:39:41.507Z,18.40
2022-10-05T22:42:10.283Z,18.30
2022-10-05T22:44:40.520Z,18.30
2022-10-05T22:47:08.733Z,18.30
2022-10-05T22:49:37.056Z,18.30
2022-10-05T22:52:05.313Z,18.30
2022-10-05T22:54:37.084Z,18.30
2022-10-05T22:57:05.657Z,18.10
2022-10-05T22:59:34.089Z,18.00
2022-10-05T23:02:03.690Z,17.80
2022-10-05T23:04:32.031Z,17.60
2022-10-05T23:07:00.185Z,17.40
2022-10-05T23:09:28.362Z,17.30
2022-10-05T23:11:56.511Z,17.20
2022-10-05T23:14:24.664Z,17.10
2022-10-05T23:16:52.836Z,17.00
2022-10-05T23:19:23.245Z,17.00
2022-10-05T23:21:51.603Z,17.00
2022-10-05T23:24:19.718Z,16.90
2022-10-05T23:26:47.936Z,16.90
2022-10-05T23:29:16.058Z,16.90
2022-10-05T23:31:44.441Z,16.80
2022-10-05T23:34:12.580Z,16.90
2022-10-05T23:36:42.366Z,16.90
2022-10-05T23:39:10.561Z,16.90
2022-10-05T23:41:38.724Z,16.90
2022-10-05T23:44:06.936Z,16.90
2022-10-05T23:46:35.124Z,16.90
2022-10-05T23:49:03.383Z,16.90
2022-10-05T23:51:31.557Z,16.90
2022-10-05T23:54:01.106Z,16.90
2022-10-05T23:56:29.281Z,16.90
2022-10-05T23:58:57.426Z,16.90
